Time;durP1;ratioP1;P1;durP2;ratioP2;P2;SDS_P1;SDS_P2;PMS_P1;PMS_P2;Temp;Humidity;BMP_temperature;BMP_pressure;BME280_temperature;BME280_humidity;BME280_pressure;Samples;Min_cycle;Max_cycle;Signal;HPM_P1;HPM_P2
2022/04/16 00:00:27;;;;;;;17.53;10.60;;;9.70;99.90;;;;;;4991157;28;20452;-73
2022/04/16 00:02:54;;;;;;;17.57;11.27;;;9.80;99.90;;;;;;4991176;28;20454;-73
2022/04/16 00:05:23;;;;;;;20.23;11.87;;;9.80;99.90;;;;;;4991014;28;20444;-73
2022/04/16 00:08:06;;;;;;;17.75;10.85;;;9.80;99.90;;;;;;4990961;28;20026;-74
2022/04/16 00:10:37;;;;;;;17.40;10.83;;;9.80;99.90;;;;;;4991109;28;20408;-74
2022/04/16 00:13:04;;;;;;;18.47;11.73;;;9.70;99.90;;;;;;4990802;28;20057;-73
2022/04/16 00:15:31;;;;;;;17.73;11.07;;;9.70;99.90;;;;;;4990443;28;20061;-73
2022/04/16 00:17:57;;;;;;;16.17;11.37;;;9.70;99.90;;;;;;4990904;28;20034;-73
2022/04/16 00:20:27;;;;;;;15.83;11.07;;;9.70;99.90;;;;;;4990939;28;20391;-73
2022/04/16 00:22:54;;;;;;;18.20;11.27;;;9.70;99.90;;;;;;4991829;28;20030;-73
2022/04/16 00:25:21;;;;;;;18.37;11.90;;;9.80;99.90;;;;;;4990716;28;20026;-73
2022/04/16 00:27:47;;;;;;;17.80;11.30;;;9.80;99.90;;;;;;4990325;28;20077;-74
2022/04/16 00:30:13;;;;;;;18.53;11.73;;;9.80;99.90;;;;;;4990389;28;20061;-74
2022/04/16 00:32:40;;;;;;;17.30;11.47;;;9.80;99.90;;;;;;4990681;28;20042;-73
2022/04/16 00:35:07;;;;;;;18.53;11.60;;;9.70;99.90;;;;;;4990273;28;20426;-73
2022/04/16 00:37:34;;;;;;;19.27;12.07;;;9.60;99.90;;;;;;4990603;28;20344;-73
2022/04/16 00:40:00;;;;;;;20.23;12.10;;;9.70;99.90;;;;;;4989308;28;20548;-73
2022/04/16 00:42:32;;;;;;;17.50;12.13;;;9.60;99.90;;;;;;4972916;28;20042;-73
2022/04/16 00:44:58;;;;;;;17.63;12.97;;;9.60;99.90;;;;;;4990268;28;20037;-74
2022/04/16 00:47:24;;;;;;;18.07;12.67;;;9.60;99.90;;;;;;4990347;28;20034;-73
2022/04/16 00:49:50;;;;;;;21.07;13.07;;;9.60;99.90;;;;;;4990640;28;20621;-73
2022/04/16 00:52:16;;;;;;;20.63;13.07;;;9.50;99.90;;;;;;4989488;28;20045;-73
2022/04/16 00:54:42;;;;;;;19.23;13.33;;;9.60;99.90;;;;;;4990638;28;20031;-73
2022/04/16 00:57:08;;;;;;;20.20;13.23;;;9.60;99.90;;;;;;4990385;28;20070;-74
2022/04/16 00:59:34;;;;;;;17.77;13.00;;;9.60;99.90;;;;;;4990007;28;20733;-74
2022/04/16 01:02:00;;;;;;;23.80;14.83;;;9.60;99.90;;;;;;4989113;28;20041;-74
2022/04/16 01:04:26;;;;;;;20.73;13.47;;;9.60;99.90;;;;;;4990390;28;20038;-73
2022/04/16 01:06:52;;;;;;;21.00;14.00;;;9.60;99.90;;;;;;4990356;28;20058;-74
2022/04/16 01:09:18;;;;;;;18.73;12.67;;;9.60;99.90;;;;;;4989009;28;20097;-74
2022/04/16 01:11:44;;;;;;;22.93;13.50;;;9.60;99.90;;;;;;4988981;28;20034;-74
2022/04/16 01:14:10;;;;;;;21.10;13.60;;;9.50;99.90;;;;;;4989762;28;20034;-74
2022/04/16 01:16:36;;;;;;;21.60;13.60;;;9.60;99.90;;;;;;4990074;28;20049;-74
2022/04/16 01:19:03;;;;;;;19.40;12.83;;;9.60;99.90;;;;;;4989926;28;20057;-74
2022/04/16 01:21:29;;;;;;;21.10;13.27;;;9.60;99.90;;;;;;4990087;28;20510;-73
2022/04/16 01:23:55;;;;;;;20.97;13.27;;;9.60;99.90;;;;;;4990002;28;20051;-73
2022/04/16 01:26:22;;;;;;;21.57;13.53;;;9.60;99.90;;;;;;4989973;28;20046;-73
2022/04/16 01:28:48;;;;;;;20.50;14.20;;;9.50;99.90;;;;;;4990083;28;20030;-73
2022/04/16 01:31:14;;;;;;;22.27;14.13;;;9.60;99.90;;;;;;4989701;28;20029;-74
2022/04/16 01:33:40;;;;;;;19.93;13.60;;;9.60;99.90;;;;;;4990124;28;20027;-74
2022/04/16 01:36:06;;;;;;;22.23;14.53;;;9.50;99.90;;;;;;4989923;28;20074;-73
2022/04/16 01:38:32;;;;;;;19.77;13.37;;;9.50;99.90;;;;;;4988714;28;20035;-73
2022/04/16 01:40:58;;;;;;;19.50;12.83;;;9.50;99.90;;;;;;4989918;28;20378;-73
2022/04/16 01:43:25;;;;;;;19.27;14.07;;;9.50;99.90;;;;;;4990010;28;20046;-73
2022/04/16 01:45:51;;;;;;;20.17;14.77;;;9.40;99.90;;;;;;4989733;28;20027;-73
2022/04/16 01:48:18;;;;;;;22.07;13.67;;;9.40;99.90;;;;;;4993732;28;20118;-73
2022/04/16 01:50:44;;;;;;;21.10;14.13;;;9.40;99.90;;;;;;4993596;28;20057;-73
2022/04/16 01:53:10;;;;;;;20.97;14.50;;;9.30;99.90;;;;;;4994009;28;20492;-73
2022/04/16 01:55:36;;;;;;;21.97;14.03;;;9.30;99.90;;;;;;4993312;28;20034;-73
2022/04/16 01:58:03;;;;;;;23.03;14.37;;;9.20;99.90;;;;;;4993423;28;20041;-73
2022/04/16 02:00:29;;;;;;;23.33;14.73;;;9.10;99.90;;;;;;4993128;28;20380;-73
2022/04/16 02:02:57;;;;;;;21.37;14.13;;;9.20;99.90;;;;;;4993479;28;20034;-74
2022/04/16 02:05:24;;;;;;;20.23;14.10;;;9.20;99.90;;;;;;4993318;28;20109;-73
2022/04/16 02:07:50;;;;;;;21.63;14.60;;;9.30;99.90;;;;;;4993216;28;20033;-73
2022/04/16 02:10:16;;;;;;;20.13;13.77;;;9.20;99.90;;;;;;4993244;28;20110;-73
2022/04/16 02:12:43;;;;;;;23.83;14.33;;;9.30;99.90;;;;;;4993537;28;20595;-73
2022/04/16 02:15:10;;;;;;;21.43;14.27;;;9.20;99.90;;;;;;4991644;28;20538;-73
2022/04/16 02:17:37;;;;;;;26.77;15.40;;;9.20;99.90;;;;;;4993116;28;20105;-73
2022/04/16 02:20:06;;;;;;;22.43;14.80;;;9.20;99.90;;;;;;4993145;28;20504;-73
2022/04/16 02:22:43;;;;;;;24.63;15.03;;;9.20;99.90;;;;;;4993005;28;20487;-73
2022/04/16 02:25:09;;;;;;;23.07;14.63;;;9.20;99.90;;;;;;4993134;28;20027;-73
2022/04/16 02:27:35;;;;;;;22.70;14.73;;;9.20;99.90;;;;;;4993054;28;20027;-73
2022/04/16 02:30:06;;;;;;;23.53;15.03;;;9.20;99.90;;;;;;5012642;23;20627;-79
2022/04/16 02:32:39;;;;;;;25.30;14.97;;;9.10;99.90;;;;;;4991474;28;20041;-79
2022/04/16 02:35:08;;;;;;;23.60;15.60;;;9.10;99.90;;;;;;4992914;28;20121;-79
2022/04/16 02:37:35;;;;;;;19.33;13.57;;;8.90;99.90;;;;;;4991560;28;20347;-79
2022/04/16 02:40:02;;;;;;;21.60;14.03;;;8.90;99.90;;;;;;4991748;28;20047;-80
2022/04/16 02:42:28;;;;;;;21.70;14.57;;;8.90;99.90;;;;;;4992888;28;20038;-79
2022/04/16 02:47:38;;;;;;;21.07;14.37;;;8.70;99.90;;;;;;4992881;28;20038;-79
2022/04/16 02:50:04;;;;;;;24.33;15.27;;;8.70;99.90;;;;;;4992659;28;20031;-79
2022/04/16 02:52:34;;;;;;;22.57;14.77;;;8.70;99.90;;;;;;4992704;28;20042;-79
2022/04/16 02:55:01;;;;;;;25.07;15.60;;;8.70;99.90;;;;;;4992560;28;20129;-79
2022/04/16 02:57:26;;;;;;;25.07;15.20;;;8.70;99.90;;;;;;4990795;28;20030;-79
2022/04/16 02:59:52;;;;;;;27.03;15.87;;;8.70;99.90;;;;;;4991481;28;20359;-79
2022/04/16 03:02:18;;;;;;;25.70;16.13;;;8.70;99.90;;;;;;4992305;28;20096;-79
2022/04/16 03:04:44;;;;;;;25.97;16.43;;;8.60;99.90;;;;;;4991951;28;20114;-79
2022/04/16 03:07:10;;;;;;;24.27;15.67;;;8.60;99.90;;;;;;4992313;28;20038;-79
2022/04/16 03:09:35;;;;;;;23.33;16.10;;;8.60;99.90;;;;;;4992163;28;20033;-79
2022/04/16 03:12:01;;;;;;;28.57;16.10;;;8.60;99.90;;;;;;4992230;28;20498;-79
2022/04/16 03:19:56;;;;;;;26.30;15.80;;;8.50;99.90;;;;;;4992006;28;20038;-79
2022/04/16 03:22:22;;;;;;;24.97;16.23;;;8.60;99.90;;;;;;4991914;28;20208;-79
2022/04/16 03:24:47;;;;;;;24.17;16.67;;;8.60;99.90;;;;;;4991713;28;20193;-79
2022/04/16 03:27:13;;;;;;;22.77;15.77;;;8.50;99.90;;;;;;4991886;28;20026;-79
2022/04/16 03:29:39;;;;;;;24.47;16.50;;;8.60;99.90;;;;;;4990728;28;20032;-79
2022/04/16 03:32:05;;;;;;;25.80;17.47;;;8.50;99.90;;;;;;4990377;28;20093;-80
2022/04/16 03:34:32;;;;;;;30.07;17.63;;;8.50;99.90;;;;;;4992967;28;20045;-79
2022/04/16 03:36:57;;;;;;;26.50;17.60;;;8.50;99.90;;;;;;4991587;28;20121;-80
2022/04/16 03:39:23;;;;;;;26.87;17.60;;;8.60;99.90;;;;;;4991215;28;20118;-79
2022/04/16 03:41:49;;;;;;;27.73;18.10;;;8.60;99.90;;;;;;4991423;28;20034;-80
2022/04/16 03:44:15;;;;;;;27.80;17.23;;;8.50;99.90;;;;;;4989319;28;20034;-79
2022/04/16 03:46:41;;;;;;;26.13;17.27;;;8.60;99.90;;;;;;4991206;28;20034;-79
2022/04/16 03:49:07;;;;;;;28.17;17.60;;;8.50;99.90;;;;;;4991401;28;20081;-79
2022/04/16 03:51:32;;;;;;;24.30;16.40;;;8.50;99.90;;;;;;4991308;28;20149;-79
2022/04/16 03:59:59;;;;;;;27.10;17.70;;;8.50;99.90;;;;;;4991510;28;20034;-79
2022/04/16 04:02:12;;;;;;;29.27;17.90;;;8.40;99.90;;;;;;4990975;28;20076;-80
2022/04/16 04:04:38;;;;;;;28.27;17.77;;;8.40;99.90;;;;;;4990983;28;20034;-79
2022/04/16 04:07:04;;;;;;;27.87;18.30;;;8.40;99.90;;;;;;4991131;28;20070;-79
2022/04/16 04:09:31;;;;;;;25.17;17.33;;;8.40;99.90;;;;;;4990298;28;20388;-79
2022/04/16 04:11:57;;;;;;;27.73;17.73;;;8.40;99.90;;;;;;4991065;28;20038;-79
2022/04/16 04:14:23;;;;;;;29.43;18.20;;;8.40;99.90;;;;;;4989745;28;20038;-79
2022/04/16 04:16:48;;;;;;;27.90;18.30;;;8.50;99.90;;;;;;4990095;28;20038;-79
2022/04/16 04:19:14;;;;;;;29.70;18.17;;;8.50;99.90;;;;;;4990295;28;20129;-80
2022/04/16 04:21:40;;;;;;;27.97;18.10;;;8.50;99.90;;;;;;4990276;28;20030;-79
2022/04/16 04:24:05;;;;;;;30.33;18.87;;;8.50;99.90;;;;;;4990603;28;20660;-80
2022/04/16 04:26:31;;;;;;;26.80;18.20;;;8.50;99.90;;;;;;4990530;28;20033;-79
2022/04/16 04:28:57;;;;;;;28.30;19.07;;;8.60;99.90;;;;;;4990623;28;20030;-79
2022/04/16 04:31:22;;;;;;;26.00;17.57;;;8.60;99.90;;;;;;4989686;28;20561;-80
2022/04/16 04:33:48;;;;;;;31.47;19.07;;;8.70;99.90;;;;;;4990823;28;20193;-80
2022/04/16 04:36:14;;;;;;;31.43;18.90;;;8.70;99.90;;;;;;4990556;28;20030;-80
2022/04/16 04:38:39;;;;;;;29.17;19.13;;;8.70;99.90;;;;;;4990552;28;20030;-80
2022/04/16 04:41:07;;;;;;;26.97;18.10;;;8.70;99.90;;;;;;4990527;28;20030;-79
2022/04/16 04:43:33;;;;;;;30.80;19.27;;;8.70;99.90;;;;;;4990508;28;20101;-79
2022/04/16 04:45:58;;;;;;;29.03;18.87;;;8.70;99.90;;;;;;4989682;28;20026;-80
2022/04/16 04:48:24;;;;;;;26.77;18.40;;;8.70;99.90;;;;;;4988810;28;20097;-79
2022/04/16 04:50:50;;;;;;;28.97;19.17;;;8.80;99.90;;;;;;4990343;28;20226;-80
2022/04/16 04:53:15;;;;;;;26.67;18.80;;;8.70;99.90;;;;;;4990408;28;20033;-79
2022/04/16 04:55:41;;;;;;;29.23;19.20;;;8.80;99.90;;;;;;4990004;28;20541;-79
2022/04/16 04:58:07;;;;;;;29.47;18.57;;;8.70;99.90;;;;;;4990237;28;20034;-79
2022/04/16 05:00:32;;;;;;;32.13;19.73;;;8.80;99.90;;;;;;4989636;28;20026;-87
2022/04/16 05:02:58;;;;;;;28.53;18.43;;;8.80;99.90;;;;;;4990684;28;20037;-80
2022/04/16 05:05:24;;;;;;;27.90;19.10;;;8.90;99.90;;;;;;4989885;28;20034;-80
2022/04/16 05:07:50;;;;;;;31.27;20.07;;;8.80;99.90;;;;;;4990189;28;20034;-81
2022/04/16 05:10:16;;;;;;;31.70;20.10;;;8.70;99.90;;;;;;4989990;28;20371;-83
2022/04/16 05:12:42;;;;;;;29.63;19.83;;;8.80;99.90;;;;;;4990094;28;20117;-82
2022/04/16 05:15:08;;;;;;;29.00;18.77;;;8.70;99.90;;;;;;4988721;28;20125;-83
2022/04/16 05:17:37;;;;;;;30.10;19.77;;;8.80;99.90;;;;;;4989824;28;20034;-83
2022/04/16 05:20:05;;;;;;;;;;;8.70;99.90;;;;;;4989584;28;20039;-83
2022/04/16 05:22:31;;;;;;;35.50;20.97;;;8.80;99.90;;;;;;4993901;28;19933;-83
2022/04/16 05:24:56;;;;;;;32.43;20.57;;;8.80;99.90;;;;;;4992240;28;20026;-83
2022/04/16 05:27:22;;;;;;;30.57;19.70;;;8.90;99.90;;;;;;4993930;28;20470;-82
2022/04/16 05:30:06;;;;;;;31.53;20.47;;;8.90;99.90;;;;;;4991507;28;20062;-83
2022/04/16 05:32:37;;;;;;;33.33;21.73;;;9.00;99.90;;;;;;4993851;28;20046;-83
2022/04/16 05:35:05;;;;;;;34.53;21.07;;;9.00;99.90;;;;;;4993689;28;20388;-83
2022/04/16 05:37:31;;;;;;;33.20;21.23;;;9.10;99.90;;;;;;4992562;28;20034;-83
2022/04/16 05:39:56;;;;;;;32.30;22.00;;;9.10;99.90;;;;;;4993514;28;20033;-83
2022/04/16 05:42:22;;;;;;;32.60;22.13;;;9.10;99.90;;;;;;4992233;28;20561;-83
2022/04/16 05:44:48;;;;;;;33.53;21.57;;;9.20;99.90;;;;;;4992791;28;20022;-82
2022/04/16 05:47:13;;;;;;;34.93;22.63;;;9.10;99.90;;;;;;4993471;28;20046;-81
2022/04/16 05:49:39;;;;;;;37.33;23.33;;;9.20;99.90;;;;;;4993234;28;20033;-81
2022/04/16 05:52:06;;;;;;;34.67;22.83;;;9.30;99.90;;;;;;4993432;28;20121;-84
2022/04/16 05:54:33;;;;;;;32.50;22.93;;;9.30;99.90;;;;;;4991763;28;20423;-82
2022/04/16 05:56:59;;;;;;;32.47;21.80;;;9.40;99.90;;;;;;4992909;28;20038;-86
2022/04/16 05:59:25;;;;;;;37.80;24.27;;;9.30;99.90;;;;;;4975054;28;20034;-84
2022/04/16 06:01:50;;;;;;;35.27;22.80;;;9.40;99.90;;;;;;4993496;28;20038;-81
2022/04/16 06:04:17;;;;;;;34.03;22.60;;;9.40;99.90;;;;;;4993267;28;20545;-82
2022/04/16 06:06:43;;;;;;;35.97;23.87;;;9.40;99.90;;;;;;4991636;28;20121;-81
2022/04/16 06:09:09;;;;;;;36.03;23.03;;;9.40;99.90;;;;;;4991762;28;20057;-79
2022/04/16 06:11:35;;;;;;;36.93;24.43;;;9.50;99.90;;;;;;4993526;28;20030;-88
2022/04/16 06:14:00;;;;;;;37.00;22.97;;;9.50;99.90;;;;;;4989800;28;20121;-79
2022/04/16 06:16:26;;;;;;;34.47;22.83;;;9.60;99.90;;;;;;4986713;28;20031;-80
2022/04/16 06:18:52;;;;;;;34.20;22.57;;;9.60;99.90;;;;;;4992303;28;20054;-79
2022/04/16 06:21:17;;;;;;;37.13;22.90;;;9.60;99.90;;;;;;4990917;28;20030;-79
2022/04/16 06:23:43;;;;;;;31.87;22.07;;;9.70;99.90;;;;;;4992359;28;20049;-80
2022/04/16 06:26:09;;;;;;;34.97;23.23;;;9.70;99.90;;;;;;4991985;28;20277;-80
2022/04/16 06:28:35;;;;;;;38.90;24.17;;;9.70;99.90;;;;;;4990576;28;20034;-80
2022/04/16 06:31:01;;;;;;;37.20;24.20;;;9.80;99.90;;;;;;4991360;28;20074;-80
2022/04/16 06:33:26;;;;;;;35.17;23.23;;;9.80;99.90;;;;;;4991645;28;20058;-85
2022/04/16 06:35:52;;;;;;;33.33;22.50;;;9.90;99.90;;;;;;4992098;28;20398;-86
2022/04/16 06:38:18;;;;;;;34.33;21.93;;;9.90;99.90;;;;;;4990702;28;20112;-81
2022/04/16 06:40:43;;;;;;;33.13;22.07;;;9.90;99.90;;;;;;4991531;28;20245;-86
2022/04/16 06:43:09;;;;;;;33.13;21.33;;;9.90;99.90;;;;;;4990643;28;20098;-82
2022/04/16 06:45:38;;;;;;;34.97;22.90;;;10.00;99.90;;;;;;4989082;28;20149;-82
2022/04/16 06:48:04;;;;;;;32.33;20.90;;;10.00;99.90;;;;;;4991795;28;20078;-82
2022/04/16 06:50:30;;;;;;;33.50;21.30;;;10.00;99.90;;;;;;4992046;28;20098;-82
2022/04/16 06:52:56;;;;;;;28.60;19.43;;;10.10;99.90;;;;;;4992002;28;20369;-82
2022/04/16 06:55:22;;;;;;;35.77;21.50;;;10.10;99.90;;;;;;4991453;28;20049;-82
2022/04/16 06:57:48;;;;;;;31.90;20.07;;;10.20;99.90;;;;;;4974249;28;20361;-83
2022/04/16 07:00:14;;;;;;;29.80;19.47;;;10.20;99.90;;;;;;4991887;28;20030;-84
2022/04/16 07:02:41;;;;;;;29.30;19.40;;;10.20;99.90;;;;;;4992293;28;20036;-83
2022/04/16 07:05:07;;;;;;;26.63;18.23;;;10.20;99.90;;;;;;4992529;28;20049;-83
2022/04/16 07:07:33;;;;;;;30.67;18.20;;;10.30;99.90;;;;;;4990517;28;20438;-84
2022/04/16 07:09:59;;;;;;;26.83;18.87;;;10.50;99.90;;;;;;4991520;28;20026;-83
2022/04/16 07:12:25;;;;;;;33.73;18.63;;;10.50;99.90;;;;;;4991699;28;20041;-85
2022/04/16 07:14:51;;;;;;;31.23;20.67;;;10.70;99.90;;;;;;4988913;28;20023;-82
2022/04/16 07:17:17;;;;;;;27.53;18.80;;;10.70;99.90;;;;;;4991220;28;20031;-82
2022/04/16 07:19:42;;;;;;;28.07;18.63;;;10.70;99.90;;;;;;4989643;28;20509;-83
2022/04/16 07:22:08;;;;;;;28.23;18.13;;;10.70;99.90;;;;;;4990027;28;20067;-83
2022/04/16 07:24:37;;;;;;;27.43;18.17;;;10.70;99.90;;;;;;4990796;28;20510;-82
2022/04/16 07:27:06;;;;;;;;;;;10.70;99.90;;;;;;4991783;28;20064;-83
2022/04/16 07:29:32;;;;;;;27.57;16.30;;;10.70;99.90;;;;;;4988886;28;20429;-84
2022/04/16 07:31:58;;;;;;;24.83;16.40;;;10.70;99.90;;;;;;4989767;28;20026;-88
2022/04/16 07:34:25;;;;;;;22.97;15.90;;;10.70;99.90;;;;;;4990896;28;20478;-90
2022/04/16 07:36:51;;;;;;;26.07;16.90;;;10.70;99.90;;;;;;4991489;28;20065;-84
2022/04/16 07:39:17;;;;;;;27.17;16.97;;;10.70;99.90;;;;;;4990801;28;20038;-84
2022/04/16 07:41:43;;;;;;;23.20;16.07;;;10.70;99.90;;;;;;4990698;28;20391;-85
2022/04/16 07:44:09;;;;;;;24.90;16.50;;;10.70;99.90;;;;;;4989866;28;20026;-84
2022/04/16 07:46:35;;;;;;;23.13;16.17;;;10.70;99.90;;;;;;4989616;28;20110;-85
2022/04/16 07:49:04;;;;;;;25.47;15.73;;;10.80;99.90;;;;;;4990896;28;20078;-85
2022/04/16 07:51:30;;;;;;;21.98;15.40;;;10.80;99.90;;;;;;4990437;28;20053;-84
2022/04/16 07:53:56;;;;;;;23.93;15.67;;;10.80;99.90;;;;;;4991434;28;20459;-84
2022/04/16 07:56:22;;;;;;;23.37;15.63;;;10.90;99.90;;;;;;4990715;28;20348;-88
2022/04/16 07:58:48;;;;;;;24.63;16.07;;;10.90;99.90;;;;;;4991318;28;20038;-85
2022/04/16 08:01:14;;;;;;;25.07;15.90;;;10.90;99.90;;;;;;4988417;28;20108;-86
2022/04/16 08:03:40;;;;;;;25.57;16.73;;;10.90;99.90;;;;;;4990153;28;20096;-85
2022/04/16 08:06:06;;;;;;;23.10;15.20;;;11.00;99.90;;;;;;4990551;28;20498;-87
2022/04/16 08:08:32;;;;;;;21.33;14.43;;;11.00;99.90;;;;;;4989170;28;20533;-87
2022/04/16 08:11:35;;;;;;;19.23;12.90;;;11.10;99.90;;;;;;4989604;28;20026;-92
2022/04/16 08:14:04;;;;;;;21.90;14.17;;;11.10;99.90;;;;;;4991276;28;20092;-87
2022/04/16 08:16:55;;;;;;;23.33;14.93;;;11.10;99.90;;;;;;4989412;28;20034;-92
2022/04/16 08:19:37;;;;;;;23.27;14.63;;;11.10;99.90;;;;;;4992959;28;20034;-94
2022/04/16 08:22:17;;;;;;;21.70;14.67;;;11.20;99.90;;;;;;4991815;28;20037;-88
2022/04/16 08:27:55;;;;;;;20.57;13.67;;;11.20;99.90;;;;;;4991480;28;20026;-89
2022/04/16 08:30:21;;;;;;;19.90;13.23;;;11.30;99.90;;;;;;5020564;23;20054;-71
2022/04/16 08:32:49;;;;;;;20.97;12.60;;;11.30;99.90;;;;;;4990519;28;20117;-70
2022/04/16 08:35:16;;;;;;;21.03;13.03;;;11.40;99.90;;;;;;4990378;28;20030;-72
2022/04/16 08:37:42;;;;;;;18.03;12.60;;;11.40;99.90;;;;;;4990427;28;20037;-69
2022/04/16 08:40:10;;;;;;;16.80;10.77;;;11.40;99.90;;;;;;4990320;28;20034;-74
2022/04/16 08:42:37;;;;;;;21.07;12.17;;;11.50;99.90;;;;;;4990744;28;20373;-71
2022/04/16 08:45:06;;;;;;;19.53;12.30;;;11.50;99.90;;;;;;4989942;28;20478;-73
2022/04/16 08:47:33;;;;;;;17.90;11.68;;;11.50;99.90;;;;;;4990376;28;20036;-73
2022/04/16 08:50:05;;;;;;;20.03;11.27;;;11.50;99.90;;;;;;4990325;28;20022;-73
2022/04/16 08:52:32;;;;;;;15.87;10.47;;;11.50;99.90;;;;;;4990292;28;20150;-73
2022/04/16 08:54:59;;;;;;;17.70;11.30;;;11.60;99.90;;;;;;4989780;28;20108;-72
2022/04/16 08:57:25;;;;;;;17.13;10.37;;;11.60;99.90;;;;;;4988975;28;20027;-74
2022/04/16 08:59:52;;;;;;;15.37;10.10;;;11.60;99.90;;;;;;4996049;28;20030;-72
2022/04/16 09:02:23;;;;;;;15.10;9.53;;;11.70;99.90;;;;;;4997912;28;20041;-72
2022/04/16 09:05:00;;;;;;;14.10;9.40;;;11.70;99.90;;;;;;4969646;28;20062;-73
2022/04/16 09:07:26;;;;;;;16.57;10.27;;;11.80;99.90;;;;;;4970846;28;20027;-73
2022/04/16 09:09:52;;;;;;;15.50;10.37;;;11.80;99.90;;;;;;4968803;28;20081;-74
2022/04/16 09:12:19;;;;;;;14.80;9.77;;;11.90;99.90;;;;;;4970386;28;20034;-75
2022/04/16 09:14:46;;;;;;;14.73;10.03;;;12.00;99.90;;;;;;4970175;28;20105;-75
2022/04/16 09:17:18;;;;;;;17.20;8.90;;;12.00;99.90;;;;;;4969202;28;20058;-75
2022/04/16 09:19:54;;;;;;;14.10;8.27;;;12.10;99.90;;;;;;4969091;28;20034;-75
2022/04/16 09:22:34;;;;;;;13.47;7.67;;;12.10;99.90;;;;;;4970797;28;20039;-75
2022/04/16 09:25:00;;;;;;;;;;;12.10;99.70;;;;;;4970969;28;20034;-75
2022/04/16 09:27:26;;;;;;;12.10;7.77;;;12.10;99.10;;;;;;4970499;28;19973;-74
2022/04/16 09:29:54;;;;;;;10.70;7.13;;;12.10;98.60;;;;;;4969923;28;20027;-74
2022/04/16 09:32:25;;;;;;;12.60;7.17;;;12.20;98.50;;;;;;4970845;28;20053;-75
2022/04/16 09:34:54;;;;;;;12.50;6.93;;;12.20;98.50;;;;;;4970318;28;20065;-75
2022/04/16 09:37:24;;;;;;;11.48;7.30;;;12.20;98.40;;;;;;4970568;28;20082;-75
2022/04/16 09:39:50;;;;;;;11.77;7.33;;;12.30;98.40;;;;;;4970194;28;20042;-75
2022/04/16 09:42:26;;;;;;;12.97;7.90;;;12.40;98.40;;;;;;4970513;28;20061;-75
2022/04/16 09:44:52;;;;;;;9.57;6.13;;;12.50;97.80;;;;;;4968426;28;20507;-75
2022/04/16 09:47:23;;;;;;;8.30;5.50;;;12.50;97.50;;;;;;4970444;28;20216;-75
2022/04/16 09:49:52;;;;;;;8.23;5.30;;;12.60;97.10;;;;;;4970375;28;20027;-75
2022/04/16 09:52:19;;;;;;;;;;;12.60;96.40;;;;;;4970955;28;20031;-75
2022/04/16 09:54:49;;;;;;;11.30;6.67;;;12.70;96.40;;;;;;4970239;28;19956;-75
2022/04/16 09:57:19;;;;;;;9.13;6.00;;;12.70;96.20;;;;;;4970249;28;20058;-74
2022/04/16 09:59:50;;;;;;;9.23;5.47;;;12.70;95.10;;;;;;4969806;28;20077;-75
2022/04/16 10:02:16;;;;;;;8.88;4.97;;;12.70;95.10;;;;;;4970592;28;20353;-75
2022/04/16 10:04:43;;;;;;;10.40;5.77;;;12.70;94.60;;;;;;4969927;28;20031;-75
2022/04/16 10:07:11;;;;;;;8.98;6.15;;;12.70;94.80;;;;;;4970752;28;20503;-75
2022/04/16 10:09:41;;;;;;;9.10;6.03;;;12.70;94.80;;;;;;4973512;28;20051;-75
2022/04/16 10:14:52;;;;;;;8.40;5.70;;;12.60;95.00;;;;;;4971944;28;20042;-75
2022/04/16 10:17:30;;;;;;;8.40;5.77;;;12.60;94.30;;;;;;4972326;28;20454;-74
2022/04/16 10:20:16;;;;;;;9.95;6.93;;;12.60;94.00;;;;;;4972402;28;20444;-75
2022/04/16 10:22:55;;;;;;;9.73;6.10;;;12.60;94.50;;;;;;4973572;28;20498;-75
2022/04/16 10:25:36;;;;;;;7.53;5.57;;;12.60;94.20;;;;;;4973172;28;20037;-75
2022/04/16 10:28:10;;;;;;;8.00;5.20;;;12.60;94.00;;;;;;4973172;28;20061;-75
2022/04/16 10:31:03;;;;;;;7.28;4.75;;;12.60;93.70;;;;;;4972717;28;20127;-75
2022/04/16 10:33:29;;;;;;;8.43;4.67;;;12.60;92.90;;;;;;4968874;28;20566;-75
2022/04/16 10:35:58;;;;;;;9.93;5.77;;;12.70;92.40;;;;;;4971741;28;20059;-75
2022/04/16 10:38:37;;;;;;;8.88;5.40;;;12.70;92.80;;;;;;4971962;28;20685;-75
2022/04/16 10:41:09;;;;;;;9.82;5.55;;;12.70;92.40;;;;;;4972946;28;20062;-75
2022/04/16 10:43:36;;;;;;;7.85;5.10;;;12.70;91.80;;;;;;4973179;28;20031;-75
2022/04/16 10:46:03;;;;;;;8.23;5.35;;;12.70;92.10;;;;;;4972300;28;20034;-75
2022/04/16 10:48:34;;;;;;;7.93;5.60;;;12.70;92.20;;;;;;4973052;28;20031;-75
2022/04/16 10:51:00;;;;;;;8.35;6.10;;;12.70;92.60;;;;;;4972620;28;20027;-75
2022/04/16 10:53:32;;;;;;;9.60;6.18;;;12.70;92.70;;;;;;4973063;28;20496;-74
2022/04/16 10:56:22;;;;;;;10.48;6.07;;;12.70;92.30;;;;;;4972742;28;20027;-75
2022/04/16 10:58:59;;;;;;;9.13;5.97;;;12.80;92.00;;;;;;4973687;28;20114;-75
2022/04/16 11:01:27;;;;;;;8.65;6.47;;;12.80;91.70;;;;;;4972404;28;20484;-75
2022/04/16 11:03:56;;;;;;;10.43;6.38;;;12.80;91.80;;;;;;4973212;28;20034;-75
2022/04/16 11:06:33;;;;;;;9.88;5.90;;;12.80;91.90;;;;;;4971630;28;20133;-75
2022/04/16 11:08:59;;;;;;;9.40;5.82;;;12.80;91.30;;;;;;4973124;28;20050;-75
2022/04/16 11:11:25;;;;;;;7.30;5.07;;;12.80;91.20;;;;;;4972785;28;20046;-75
2022/04/16 11:13:51;;;;;;;8.10;5.28;;;12.90;91.70;;;;;;4973119;28;20114;-75
2022/04/16 11:16:22;;;;;;;8.65;5.95;;;12.90;91.80;;;;;;4971031;28;20031;-75
2022/04/16 11:18:48;;;;;;;8.73;5.88;;;12.90;91.00;;;;;;4972670;28;20022;-75
2022/04/16 11:21:18;;;;;;;9.82;6.18;;;13.00;90.90;;;;;;4971270;28;20037;-75
2022/04/16 11:23:54;;;;;;;8.02;5.30;;;13.00;90.40;;;;;;4972804;28;20075;-75
2022/04/16 11:34:43;;;;;;;6.40;4.80;;;13.10;90.80;;;;;;4972277;28;20415;-75
2022/04/16 11:37:09;;;;;;;7.70;5.25;;;13.10;90.40;;;;;;4972391;28;20034;-74
2022/04/16 11:39:35;;;;;;;9.95;5.32;;;13.20;90.90;;;;;;4972244;28;20053;-75
2022/04/16 11:42:07;;;;;;;9.95;6.28;;;13.20;90.50;;;;;;4972229;28;20084;-75
2022/04/16 11:44:41;;;;;;;9.02;5.80;;;13.20;90.10;;;;;;4971811;28;20030;-75
2022/04/16 11:47:08;;;;;;;9.13;5.32;;;13.20;90.50;;;;;;4972595;28;20038;-74
2022/04/16 11:49:36;;;;;;;9.10;5.63;;;13.20;90.60;;;;;;4972103;28;20031;-75
2022/04/16 11:52:02;;;;;;;8.75;5.50;;;13.30;90.20;;;;;;4972135;28;20027;-75
2022/04/16 11:54:29;;;;;;;7.65;5.07;;;13.30;90.20;;;;;;4971995;28;20049;-75
2022/04/16 11:56:56;;;;;;;10.93;5.80;;;13.40;89.60;;;;;;4971945;28;20113;-75
2022/04/16 11:59:27;;;;;;;8.20;5.15;;;13.40;89.80;;;;;;4970227;28;20134;-75
2022/04/16 12:02:09;;;;;;;8.27;5.47;;;13.40;89.00;;;;;;4972018;28;20487;-74
2022/04/16 12:04:39;;;;;;;8.98;4.90;;;13.30;88.90;;;;;;4971996;28;20035;-75
2022/04/16 12:07:25;;;;;;;7.10;4.50;;;13.40;89.80;;;;;;4971906;28;20034;-75
2022/04/16 12:09:51;;;;;;;6.38;4.40;;;13.40;90.20;;;;;;4971480;28;20419;-75
2022/04/16 12:12:24;;;;;;;8.77;5.20;;;13.40;90.10;;;;;;4971415;28;20038;-75
2022/04/16 12:14:51;;;;;;;9.88;6.30;;;13.50;89.10;;;;;;4971296;28;20234;-74
2022/04/16 12:17:29;;;;;;;6.53;4.57;;;13.50;88.30;;;;;;4971491;28;20030;-74
2022/04/16 12:20:05;;;;;;;8.55;4.95;;;13.60;88.60;;;;;;4971481;28;20030;-74
2022/04/16 12:22:33;;;;;;;7.32;4.47;;;13.60;86.10;;;;;;4971183;28;20423;-74
2022/04/16 12:25:09;;;;;;;8.30;4.93;;;13.60;86.10;;;;;;4971274;28;20049;-75
2022/04/16 12:27:35;;;;;;;5.07;3.55;;;13.60;85.50;;;;;;4971391;28;20031;-75
2022/04/16 12:30:03;;;;;;;7.20;4.20;;;13.60;85.60;;;;;;4970281;28;20094;-75
2022/04/16 12:32:29;;;;;;;7.90;4.43;;;13.60;85.50;;;;;;4971218;28;20190;-75
2022/04/16 12:34:55;;;;;;;6.53;4.47;;;13.70;84.70;;;;;;4970976;28;20169;-75
2022/04/16 12:37:21;;;;;;;7.88;5.05;;;13.70;84.00;;;;;;4971270;28;20030;-75
2022/04/16 12:39:49;;;;;;;7.07;4.57;;;13.80;83.80;;;;;;4971246;28;20381;-75
2022/04/16 12:42:15;;;;;;;7.20;3.97;;;13.80;83.20;;;;;;4969823;28;20038;-75
2022/04/16 12:44:41;;;;;;;7.38;4.20;;;13.80;83.20;;;;;;4971153;28;20399;-75
2022/04/16 12:47:07;;;;;;;6.90;3.80;;;13.80;82.50;;;;;;4971214;28;20109;-75
2022/04/16 12:49:33;;;;;;;6.43;4.05;;;13.80;81.90;;;;;;4970935;28;20146;-75
2022/04/16 12:51:59;;;;;;;6.82;4.35;;;13.80;82.50;;;;;;4971391;28;20495;-75
2022/04/16 12:54:26;;;;;;;9.82;4.72;;;13.90;81.20;;;;;;4970840;28;20547;-74
2022/04/16 12:56:52;;;;;;;6.43;4.07;;;13.80;79.40;;;;;;4971084;28;20460;-74
2022/04/16 12:59:18;;;;;;;7.25;4.28;;;13.90;80.30;;;;;;4970546;28;20071;-74
2022/04/16 13:01:44;;;;;;;6.45;3.60;;;13.90;79.50;;;;;;4971026;28;20045;-75
2022/04/16 13:04:10;;;;;;;5.03;3.28;;;13.90;80.80;;;;;;4969880;28;20039;-75
2022/04/16 13:06:35;;;;;;;7.32;4.05;;;14.00;80.70;;;;;;4970875;28;20079;-74
2022/04/16 13:09:02;;;;;;;7.75;3.53;;;14.00;80.70;;;;;;4970909;28;20372;-74